Flight Track Log - Related Links

Times and Time Zones

All times are in EDT time to prevent confusion due to time zone crossing. See the UAL555 flight status page for this flight to view local times or setup timezone preferences in your user account.

Time Position Orientation Groundspeed Altitude Reporting Facility
EDT Latitude Longitude Course Direction KTS MPH feet Rate Location/Type
Fri 10:44:11 PM 42.0000 -87.9333 346° North 170 196 1,500  Level Chicago TRACON
Fri 10:45:11 PM 42.0333 -87.9833 312° West 223 257 3,600 1,750 Climbing Chicago TRACON
Fri 10:46:00 PM 42.3037 -88.0051 350° North  Level FlightAware Approximate
Fri 10:46:11 PM 42.1167 -87.9833 360° North 270 311 5,000  Level Chicago TRACON
Fri 10:46:53 PM 42.1456 -87.9831 360° North 267 307 5,400 2,155 Climbing Chicago Center
Fri 10:47:00 PM 42.4145 -88.0489 340° North  Level FlightAware Approximate
Fri 10:47:54 PM 42.2350 -87.9814 North 269 310 8,700  Level Chicago Center
Fri 10:48:00 PM 42.5251 -88.0861 346° North  Level FlightAware Approximate
Fri 10:48:55 PM 42.3108 -87.9961 352° North 276 318 11,400  Level Chicago Center
Fri 10:49:00 PM 42.6377 -88.1236 346° North  Level FlightAware Approximate
Fri 10:49:56 PM 42.3808 -88.0211 345° North 281 323 13,700  Level Chicago Center
Fri 10:50:57 PM 42.4586 -88.0508 344° North 289 333 15,800 2,016 Climbing Chicago Center
Fri 10:51:58 PM 42.5417 -88.0797 346° North 303 349 17,800 2,066 Climbing Chicago Center
Fri 10:52:59 PM 42.6411 -88.1161 345° North 315 362 20,000 1,525 Climbing Chicago Center
Fri 10:54:00 PM 42.7356 -88.1500 345° North 345 397 20,900 1,033 Climbing Chicago Center
Fri 10:55:01 PM 42.8408 -88.1869 346° North 385 443 22,100 1,366 Climbing Chicago Center
Fri 10:56:03 PM 42.9511 -88.2261 345° North 405 466 23,700 1,512 Climbing Chicago Center
Fri 10:57:04 PM 43.0625 -88.2664 345° North 413 475 25,200 1,328 Climbing Chicago Center
Fri 10:58:05 PM 43.1428 -88.3769 315° West 429 494 26,400 1,623 Climbing Chicago Center
Fri 10:59:06 PM 43.1881 -88.5328 292° West 434 499 28,500 1,967 Climbing Chicago Center
Fri 11:00:07 PM 43.2333 -88.6819 293° West 421 484 30,400 1,525 Climbing Chicago Center
Fri 11:01:08 PM 43.2778 -88.8325 292° West 421 484 31,600 1,475 Climbing Chicago Center
Fri 11:02:09 PM 43.3236 -88.9836 293° West 425 489 33,400 1,180 Climbing Chicago Center
Fri 11:03:10 PM 43.3667 -89.1292 292° West 413 475 34,000 293 Climbing Chicago Center
Fri 11:04:12 PM 43.4111 -89.2825 292° West 425 489 34,000  Level Chicago Center
Fri 11:05:13 PM 43.4567 -89.4400 292° West 438 504 34,000  Level Chicago Center
Fri 11:06:14 PM 43.4728 -89.6083 278° West 455 524 34,000  Level Chicago Center
Fri 11:07:15 PM 43.4825 -89.8069 274° West 447 514 34,000  Level Chicago Center
Fri 11:08:16 PM 43.4853 -89.9769 271° West 443 510 34,000  Level Chicago Center
Fri 11:09:17 PM 43.4883 -90.1444 271° West 439 505 34,000  Level Chicago Center
Fri 11:10:19 PM 43.4908 -90.3167 271° West 436 502 34,000  Level Chicago Center
Fri 11:11:20 PM 43.4922 -90.4822 271° West 438 504 34,000  Level Chicago Center
Fri 11:12:21 PM 43.4928 -90.6500 270° West 442 509 34,000  Level Chicago Center
Fri 11:13:22 PM 43.4950 -90.8183 271° West 446 513 34,000  Level Chicago Center
Fri 11:14:23 PM 43.4956 -90.9858 270° West 445 512 34,000  Level Chicago Center
Fri 11:15:18 PM 43.4972 -91.1528 271° West 444 511 34,000  Level Minneapolis Center
Fri 11:16:19 PM 43.4981 -91.3197 270° West 443 510 34,000  Level Minneapolis Center
Fri 11:17:20 PM 43.4983 -91.4850 270° West 440 506 34,000  Level Minneapolis Center
Fri 11:18:21 PM 43.4975 -91.6519 270° West 442 509 34,000  Level Minneapolis Center
Fri 11:19:22 PM 43.4972 -91.8189 270° West 443 510 34,000  Level Minneapolis Center
Fri 11:20:23 PM 43.4972 -91.9531 270° West 444 511 34,000  Level Minneapolis Center
Fri 11:21:25 PM 43.4964 -92.1861 270° West 443 510 34,000  Level Minneapolis Center
Fri 11:22:26 PM 43.4964 -92.3533 270° West 443 510 34,000  Level Minneapolis Center
Fri 11:23:27 PM 43.4936 -92.5203 269° West 443 510 34,000  Level Minneapolis Center
Fri 11:24:28 PM 43.4917 -92.6878 269° West 444 511 34,000  Level Minneapolis Center
Fri 11:25:29 PM 43.4889 -92.8556 269° West 442 509 34,000  Level Minneapolis Center
Fri 11:26:42 PM 43.4869 -93.0222 269° West 441 507 34,000  Level Minneapolis Center
Fri 11:27:44 PM 43.4839 -93.2544 269° West 437 503 34,000  Level Minneapolis Center
Fri 11:28:45 PM 43.4819 -93.4172 269° West 433 498 34,000  Level Minneapolis Center
Fri 11:29:46 PM 43.4781 -93.5817 268° West 433 498 34,000  Level Minneapolis Center
Fri 11:30:47 PM 43.4767 -93.7131 269° West 434 499 34,000  Level Minneapolis Center
Fri 11:31:48 PM 43.4714 -93.9069 268° West 429 494 34,000  Level Minneapolis Center
Fri 11:32:49 PM 43.4692 -94.0678 269° West 426 490 34,000  Level Minneapolis Center
Fri 11:33:51 PM 43.4653 -94.2283 268° West 426 490 34,000  Level Minneapolis Center
Fri 11:35:04 PM 43.4594 -94.4558 268° West 422 486 34,000  Level Minneapolis Center
Fri 11:36:05 PM 43.4544 -94.6175 268° West 423 487 34,000  Level Minneapolis Center
Fri 11:37:06 PM 43.4503 -94.7772 268° West 419 482 34,000  Level Minneapolis Center
Fri 11:38:07 PM 43.4461 -94.9347 268° West 415 478 34,000  Level Minneapolis Center
Fri 11:39:09 PM 43.4414 -95.0903 268° West 409 471 34,000  Level Minneapolis Center
Fri 11:40:22 PM 43.4356 -95.2472 267° West 411 473 34,000  Level Minneapolis Center
Fri 11:41:23 PM 43.4283 -95.4369 267° West 413 475 34,000 541 Level Minneapolis Center
Fri 11:42:24 PM 43.4225 -95.5944 267° West 413 475 35,100 984 Climbing Minneapolis Center
Fri 11:43:25 PM 43.4167 -95.7478 267° West 404 465 36,000 443 Climbing Minneapolis Center
Fri 11:44:26 PM 43.4122 -95.8967 268° West 394 453 36,000  Level Minneapolis Center
Fri 11:45:40 PM 43.4061 -96.0442 267° West 387 445 36,000  Level Minneapolis Center
Fri 11:46:41 PM 43.3989 -96.2247 267° West 391 450 36,000  Level Minneapolis Center
Fri 11:47:42 PM 43.3908 -96.4081 267° West 398 458 36,000  Level Minneapolis Center
Fri 11:48:43 PM 43.3836 -96.5594 266° West 396 456 36,000  Level Minneapolis Center
Fri 11:49:44 PM 43.3769 -96.7136 267° West 400 460 36,000 197 Level Minneapolis Center
Fri 11:50:45 PM 43.3692 -96.8678 266° West 402 463 36,400 689 Climbing Minneapolis Center
Fri 11:51:46 PM 43.3614 -97.0172 266° West 397 457 37,400 787 Climbing Minneapolis Center
Fri 11:52:47 PM 43.3550 -97.1619 267° West 385 443 38,000 295 Climbing Minneapolis Center
Fri 11:53:48 PM 43.3464 -97.3075 265° West 382 440 38,000  Level Minneapolis Center
Fri 11:54:49 PM 43.3389 -97.4578 266° West 391 450 38,000  Level Minneapolis Center
Fri 11:55:50 PM 43.3306 -97.6103 266° West 399 459 38,000  Level Minneapolis Center
Fri 11:56:51 PM 43.3228 -97.7614 266° West 398 458 38,000  Level Minneapolis Center
Fri 11:57:52 PM 43.3158 -97.9114 266° West 396 456 38,000  Level Minneapolis Center
Fri 11:58:53 PM 43.3056 -98.0572 265° West 388 447 38,000  Level Minneapolis Center
Fri 11:59:54 PM 43.2969 -98.2061 266° West 391 450 38,000  Level Minneapolis Center
Sat 12:00:55 AM 43.2881 -98.3528 265° West 387 445 38,000  Level Minneapolis Center
Sat 12:01:56 AM 43.2783 -98.4975 265° West 384 442 38,000  Level Minneapolis Center
Sat 12:02:57 AM 43.2672 -98.6717 265° West 384 442 38,000  Level Minneapolis Center
Sat 12:03:58 AM 43.2569 -98.8186 265° West 386 444 38,000  Level Minneapolis Center
Sat 12:04:59 AM 43.2475 -98.9683 265° West 393 452 38,000  Level Minneapolis Center
Sat 12:06:00 AM 43.2386 -99.1044 265° West 398 458 38,000  Level Minneapolis Center
Sat 12:07:01 AM 43.2289 -99.2564 265° West 400 460 38,000  Level Minneapolis Center
Sat 12:08:02 AM 43.2161 -99.4408 265° West 404 465 38,000  Level Minneapolis Center
Sat 12:09:03 AM 43.2044 -99.5950 264° West 405 466 38,000  Level Minneapolis Center
Sat 12:10:04 AM 43.1933 -99.7486 264° West 405 466 38,000  Level Minneapolis Center
Sat 12:11:16 AM 43.1825 -99.9025 265° West 405 466 38,000  Level Minneapolis Center
Sat 12:12:17 AM 43.1683 -100.0892 264° West 409 471 38,000  Level Minneapolis Center
Sat 12:13:18 AM 43.1553 -100.2450 264° West 411 473 38,000  Level Minneapolis Center
Sat 12:14:19 AM 43.1422 -100.4003 263° West 410 472 38,000  Level Minneapolis Center
Sat 12:15:20 AM 43.1300 -100.5558 264° West 410 472 38,000  Level Minneapolis Center
Sat 12:16:21 AM 43.1172 -100.7092 264° West 408 470 38,000  Level Minneapolis Center
Sat 12:17:22 AM 43.1042 -100.8642 263° West 408 470 38,000  Level Minneapolis Center
Sat 12:18:22 AM 43.0919 -101.0161 264° West 406 467 38,000  Level Minneapolis Center
Sat 12:19:23 AM 43.0792 -101.1686 264° West 404 465 38,000  Level Minneapolis Center
Sat 12:20:24 AM 43.0658 -101.3214 263° West 404 465 38,000  Level Minneapolis Center
Sat 12:21:25 AM 43.0525 -101.4739 263° West 403 464 38,000  Level Minneapolis Center
Sat 12:22:25 AM 43.0381 -101.6269 263° West 405 466 38,000  Level Minneapolis Center
Sat 12:23:26 AM 43.0250 -101.7789 263° West 404 465 38,000  Level Minneapolis Center
Sat 12:24:39 AM 43.0072 -101.9636 263° West 408 470 38,000  Level Minneapolis Center
Sat 12:25:40 AM 42.9933 -102.1189 263° West 410 472 38,000  Level Minneapolis Center
Sat 12:26:53 AM 42.9739 -102.3131 262° West 412 474 38,000  Level Denver Center
Sat 12:27:54 AM 42.9578 -102.4856 263° West 411 473 38,000  Level Denver Center
Sat 12:28:54 AM 42.9456 -102.6331 264° West 409 471 38,000  Level Denver Center
Sat 12:29:55 AM 42.9303 -102.7803 262° West 409 471 38,000  Level Denver Center
Sat 12:30:56 AM 42.9136 -102.9500 262° West 406 467 38,000  Level Denver Center
Sat 12:31:57 AM 42.8986 -103.0942 262° West 402 463 38,000  Level Denver Center
Sat 12:32:57 AM 42.8825 -103.2381 261° West 399 459 38,000  Level Denver Center
Sat 12:33:58 AM 42.8647 -103.4044 262° West 398 458 38,000  Level Denver Center
Sat 12:34:59 AM 42.8514 -103.5456 263° West 393 452 38,000  Level Denver Center
Sat 12:36:00 AM 42.8361 -103.6867 262° West 394 453 38,000  Level Denver Center
Sat 12:37:00 AM 42.8175 -103.8522 261° West 397 457 38,000  Level Denver Center
Sat 12:38:01 AM 42.8017 -103.9922 261° West 393 452 38,000  Level Denver Center
Sat 12:39:02 AM 42.7864 -104.1336 262° West 393 452 38,000  Level Denver Center
Sat 12:40:02 AM 42.7683 -104.2989 262° West 396 456 38,000  Level Denver Center
Sat 12:41:03 AM 42.7536 -104.4406 262° West 398 458 38,000  Level Denver Center
Sat 12:42:04 AM 42.7361 -104.6100 262° West 409 471 38,000  Level Denver Center
Sat 12:43:04 AM 42.7167 -104.7542 260° West 413 475 38,000  Level Denver Center
Sat 12:44:05 AM 42.6986 -104.8975 260° West 408 470 38,000  Level Denver Center
Sat 12:45:18 AM 42.6783 -105.0656 261° West 407 468 38,000  Level Denver Center
Sat 12:46:18 AM 42.6572 -105.2328 260° West 405 466 38,000  Level Denver Center
Sat 12:47:19 AM 42.6358 -105.3983 260° West 401 461 38,000  Level Denver Center
Sat 12:48:19 AM 42.6186 -105.5397 261° West 399 459 38,000  Level Denver Center
Sat 12:49:20 AM 42.6008 -105.6814 260° West 401 461 38,000  Level Denver Center
Sat 12:50:21 AM 42.5789 -105.8456 260° West 399 459 38,000  Level Denver Center
Sat 12:51:21 AM 42.5622 -105.9867 261° West 399 459 38,000  Level Denver Center
Sat 12:52:22 AM 42.5431 -106.1272 260° West 399 459 38,000  Level Denver Center
Sat 12:53:22 AM 42.5217 -106.2919 260° West 399 459 38,000  Level Denver Center
Sat 12:54:23 AM 42.5022 -106.4339 260° West 400 460 38,000  Level Denver Center
Sat 12:55:23 AM 42.4831 -106.5764 260° West 402 463 38,000  Level Denver Center
Sat 12:56:24 AM 42.4642 -106.7175 260° West 399 459 38,000  Level Denver Center
Sat 12:57:25 AM 42.4414 -106.8842 260° West 402 463 38,000  Level Denver Center
Sat 12:58:25 AM 42.4217 -107.0233 259° West 396 456 38,000  Level Denver Center
Sat 12:59:26 AM 42.4025 -107.1650 260° West 400 460 38,000  Level Denver Center
Sat 01:00:23 AM 42.3817 -107.3047 259° West 396 456 38,000  Level Salt Lake Center
Sat 01:01:24 AM 42.3594 -107.4697 260° West 399 459 38,000  Level Salt Lake Center
Sat 01:02:24 AM 42.3375 -107.6092 258° West 398 458 38,000  Level Salt Lake Center
Sat 01:03:25 AM 42.3175 -107.7503 259° West 399 459 38,000  Level Salt Lake Center
Sat 01:04:26 AM 42.2939 -107.9147 259° West 400 460 38,000  Level Salt Lake Center
Sat 01:05:27 AM 42.2722 -108.0556 258° West 401 461 38,000  Level Salt Lake Center
Sat 01:06:28 AM 42.2517 -108.1964 259° West 401 461 38,000  Level Salt Lake Center
Sat 01:07:29 AM 42.2272 -108.3633 259° West 405 466 38,000  Level Salt Lake Center
Sat 01:08:30 AM 42.2067 -108.5039 259° West 402 463 38,000  Level Salt Lake Center
Sat 01:09:31 AM 42.1806 -108.6683 258° West 401 461 38,000  Level Salt Lake Center
Sat 01:10:32 AM 42.1600 -108.8094 259° West 403 464 38,000  Level Salt Lake Center
Sat 01:11:32 AM 42.1378 -108.9503 258° West 403 464 38,000  Level Salt Lake Center
Sat 01:12:33 AM 42.1128 -109.1128 258° West 398 458 38,000  Level Salt Lake Center
Sat 01:13:34 AM 42.0897 -109.2511 257° West 398 458 38,000  Level Salt Lake Center
Sat 01:14:35 AM 42.0683 -109.3881 258° West 394 453 38,000  Level Salt Lake Center
Sat 01:15:36 AM 42.0414 -109.5489 257° West 396 456 38,000  Level Salt Lake Center
Sat 01:16:36 AM 42.0186 -109.6856 257° West 394 453 38,000  Level Salt Lake Center
Sat 01:17:37 AM 41.9958 -109.8236 258° West 396 456 38,000  Level Salt Lake Center
Sat 01:18:38 AM 41.9686 -109.9856 257° West 399 459 38,000  Level Salt Lake Center
Sat 01:19:39 AM 41.9450 -110.1244 257° West 401 461 38,000  Level Salt Lake Center
Sat 01:20:39 AM 41.9169 -110.2889 257° West 406 467 38,000  Level Salt Lake Center
Sat 01:21:40 AM 41.8925 -110.4281 257° West 403 464 38,000  Level Salt Lake Center
Sat 01:22:41 AM 41.8697 -110.5683 258° West 403 464 38,000  Level Salt Lake Center
Sat 01:23:42 AM 41.8400 -110.7325 256° West 406 467 38,000  Level Salt Lake Center
Sat 01:24:42 AM 41.8156 -110.8714 257° West 403 464 38,000  Level Salt Lake Center
Sat 01:25:43 AM 41.7894 -111.0144 256° West 406 467 38,000  Level Salt Lake Center
Sat 01:26:44 AM 41.7633 -111.1614 257° West 406 467 38,000  Level Salt Lake Center
Sat 01:27:44 AM 41.7375 -111.3067 257° West 404 465 38,000  Level Salt Lake Center
Sat 01:28:45 AM 41.7111 -111.4544 257° West 409 471 38,000  Level Salt Lake Center
Sat 01:29:46 AM 41.6839 -111.6028 256° West 412 474 38,000  Level Salt Lake Center
Sat 01:30:46 AM 41.6564 -111.7483 256° West 408 470 38,000  Level Salt Lake Center
Sat 01:31:47 AM 41.6289 -111.8944 256° West 409 471 38,000  Level Salt Lake Center
Sat 01:32:48 AM 41.5958 -112.0697 256° West 408 470 38,000  Level Salt Lake Center
Sat 01:33:48 AM 41.5686 -112.2164 256° West 410 472 38,000  Level Salt Lake Center
Sat 01:34:49 AM 41.5406 -112.3628 256° West 410 472 38,000  Level Salt Lake Center
Sat 01:35:49 AM 41.5128 -112.5092 256° West 410 472 38,000  Level Salt Lake Center
Sat 01:36:50 AM 41.4844 -112.6558 256° West 411 473 38,000  Level Salt Lake Center
Sat 01:37:51 AM 41.4556 -112.8031 255° West 412 474 38,000  Level Salt Lake Center
Sat 01:38:51 AM 41.4269 -112.9506 256° West 414 476 38,000  Level Salt Lake Center
Sat 01:39:52 AM 41.3972 -113.0969 255° West 413 475 38,000  Level Salt Lake Center
Sat 01:40:53 AM 41.3661 -113.2436 254° West 413 475 38,000  Level Salt Lake Center
Sat 01:41:53 AM 41.3247 -113.3878 249° West 416 479 38,000  Level Salt Lake Center
Sat 01:42:54 AM 41.2833 -113.5294 249° West 414 476 38,000  Level Salt Lake Center
Sat 01:43:55 AM 41.2417 -113.6697 248° West 411 473 38,000  Level Salt Lake Center
Sat 01:44:55 AM 41.2014 -113.8114 249° West 412 474 38,000  Level Salt Lake Center
Sat 01:45:56 AM 41.1614 -113.9506 249° West 408 470 38,000  Level Salt Lake Center
Sat 01:46:57 AM 41.1133 -114.1161 249° West 403 464 38,000  Level Salt Lake Center
Sat 01:47:57 AM 41.0725 -114.2531 248° West 402 463 38,000  Level Salt Lake Center
Sat 01:48:58 AM 41.0300 -114.3889 248° West 401 461 38,000  Level Salt Lake Center
Sat 01:49:58 AM 40.9894 -114.5297 249° West 405 466 38,000  Level Salt Lake Center
Sat 01:50:59 AM 40.9503 -114.6656 249° West 411 473 38,000  Level Salt Lake Center
Sat 01:52:00 AM 40.9086 -114.8014 248° West 414 476 38,000  Level Salt Lake Center
Sat 01:53:00 AM 40.8567 -114.9592 247° West 418 481 38,000  Level Salt Lake Center
Sat 01:54:01 AM 40.8169 -115.0958 249° West 417 480 38,000  Level Salt Lake Center
Sat 01:55:01 AM 40.7753 -115.2319 248° West 418 481 38,000  Level Salt Lake Center
Sat 01:56:02 AM 40.7308 -115.3672 247° West 419 482 38,000  Level Salt Lake Center
Sat 01:57:03 AM 40.6833 -115.5256 248° West 416 479 38,000  Level Salt Lake Center
Sat 01:58:03 AM 40.6411 -115.6606 248° West 415 478 38,000  Level Salt Lake Center
Sat 01:59:04 AM 40.5986 -115.7958 248° West 416 479 38,000  Level Salt Lake Center
Sat 02:00:04 AM 40.5511 -115.9528 248° West 414 476 38,000  Level Salt Lake Center
Sat 02:01:05 AM 40.5083 -116.0875 247° West 416 479 38,000  Level Salt Lake Center
Sat 02:02:05 AM 40.4644 -116.2219 247° West 416 479 38,000  Level Salt Lake Center
Sat 02:03:06 AM 40.4147 -116.3781 247° West 414 476 38,000  Level Salt Lake Center
Sat 02:04:07 AM 40.3719 -116.5106 247° West 412 474 38,000  Level Salt Lake Center
Sat 02:05:07 AM 40.3278 -116.6428 246° West 410 472 38,000  Level Salt Lake Center
Sat 02:06:08 AM 40.2828 -116.7783 247° West 415 478 38,000  Level Salt Lake Center
Sat 02:07:08 AM 40.2333 -116.9392 248° West 418 481 38,000  Level Salt Lake Center
Sat 02:08:09 AM 40.1897 -117.0719 247° West 412 474 38,000  Level Salt Lake Center
Sat 02:09:09 AM 40.1467 -117.2036 247° West 410 472 38,000  Level Salt Lake Center
Sat 02:10:10 AM 40.1144 -117.3400 253° West 409 471 38,000  Level Salt Lake Center
Sat 02:11:11 AM 40.0825 -117.5028 256° West 412 474 38,000  Level Salt Lake Center
Sat 02:12:11 AM 40.0561 -117.6414 256° West 412 474 38,000  Level Salt Lake Center
Sat 02:13:12 AM 40.0275 -117.7797 255° West 412 474 38,000  Level Salt Lake Center
Sat 02:14:12 AM 39.9944 -117.9400 255° West 409 471 38,000  Level Salt Lake Center
Sat 02:15:13 AM 39.9653 -118.0828 255° West 408 470 38,000  Level Salt Lake Center
Sat 02:16:14 AM 39.9361 -118.2256 255° West 408 470 38,000  Level Salt Lake Center
Sat 02:17:14 AM 39.9072 -118.3675 255° West 408 470 38,000  Level Salt Lake Center
Sat 02:18:14 AM 39.8778 -118.5089 255° West 407 468 38,000  Level Salt Lake Center
Sat 02:19:15 AM 39.8469 -118.6497 254° West 407 468 38,000  Level Salt Lake Center
Sat 02:20:15 AM 39.8178 -118.7908 255° West 407 468 38,000  Level Salt Lake Center
Sat 02:21:16 AM 39.7875 -118.9314 254° West 408 470 38,000  Level Salt Lake Center
Sat 02:22:16 AM 39.7564 -119.0719 254° West 408 470 38,000  Level Salt Lake Center
Sat 02:23:17 AM 39.7256 -119.2111 254° West 405 466 38,000  Level Salt Lake Center
Sat 02:24:44 AM 39.6831 -119.4067 254° West 403 464 38,000  Level Oakland Center
Sat 02:25:44 AM 39.6469 -119.5747 254° West 405 466 38,000  Level Oakland Center
Sat 02:26:45 AM 39.6156 -119.7150 254° West 406 467 38,000  Level Oakland Center
Sat 02:27:45 AM 39.5836 -119.8556 254° West 408 470 38,000  Level Oakland Center
Sat 02:28:46 AM 39.5519 -119.9964 254° West 408 470 38,000  Level Oakland Center
Sat 02:29:46 AM 39.5219 -120.1328 254° West 407 468 38,000  Level Oakland Center
Sat 02:30:46 AM 39.4889 -120.2722 253° West 408 470 38,000  Level Oakland Center
Sat 02:31:47 AM 39.4569 -120.4122 254° West 408 470 38,000  Level Oakland Center
Sat 02:32:47 AM 39.4175 -120.5500 250° West 408 470 38,000  Level Oakland Center
Sat 02:33:47 AM 39.3514 -120.6689 234° Southwest 409 471 38,000  Level Oakland Center
Sat 02:34:48 AM 39.2847 -120.7878 234° Southwest 410 472 38,000  Level Oakland Center
Sat 02:35:48 AM 39.2175 -120.9072 234° Southwest 412 474 38,000  Level Oakland Center
Sat 02:36:49 AM 39.1506 -121.0253 234° Southwest 411 473 38,000  Level Oakland Center
Sat 02:37:49 AM 39.0839 -121.1442 234° Southwest 411 473 38,000  Level Oakland Center
Sat 02:38:49 AM 39.0183 -121.2619 234° Southwest 408 470 38,000  Level Oakland Center
Sat 02:39:50 AM 38.9508 -121.3803 234° Southwest 411 473 38,000  Level Oakland Center
Sat 02:40:50 AM 38.8839 -121.4986 234° Southwest 413 475 38,000  Level Oakland Center
Sat 02:41:50 AM 38.8156 -121.6164 233° Southwest 413 475 38,000  Level Oakland Center
Sat 02:42:51 AM 38.7492 -121.7314 234° Southwest 410 472 38,000 -595 Level Oakland Center
Sat 02:43:51 AM 38.6794 -121.8492 233° Southwest 408 470 36,800 -2,200 Descending Oakland Center
Sat 02:44:51 AM 38.6119 -121.9669 234° Southwest 409 471 33,600 -3,223 Descending Oakland Center
Sat 02:45:52 AM 38.5417 -122.0886 234° Southwest 422 486 30,300 -3,174 Descending Oakland Center
Sat 02:46:52 AM 38.4664 -122.2031 230° Southwest 420 483 27,200 -3,250 Descending Oakland Center
Sat 02:47:52 AM 38.3533 -122.2461 197° South 422 486 23,800 -3,372 Descending Oakland Center
Sat 02:48:53 AM 38.2314 -122.2664 187° South 435 501 20,400 -3,124 Descending Oakland Center
Sat 02:49:53 AM 38.1150 -122.2872 188° South 427 491 17,500 -2,900 Descending Oakland Center
Sat 02:50:53 AM 38.0033 -122.3075 188° South 409 471 14,600 -2,826 Descending Oakland Center
Sat 02:51:54 AM 37.8936 -122.3264 188° South 394 453 11,800 -1,934 Descending Oakland Center
Sat 02:52:54 AM 37.7936 -122.3328 183° South 365 420 10,700 -700 Descending Oakland Center
Sat 02:53:54 AM 37.7242 -122.2856 152° Southeast 292 336 10,400 -942 Descending Oakland Center
Sat 02:54:55 AM 37.6769 -122.2375 141° Southeast 236 272 8,800 -1,934 Descending Oakland Center
Sat 02:55:55 AM 37.6383 -122.1858 133° Southeast 209 241 6,500 -2,200 Descending Oakland Center
Sat 02:56:55 AM 37.5986 -122.1397 137° Southeast 201 231 4,400 -1,800 Descending Oakland Center
Sat 02:57:55 AM 37.5658 -122.1836 227° Southwest 186 214 2,900 -1,140 Descending Oakland Center
Sat 02:58:56 AM 37.5667 -122.2381 271° West 170 196 2,100 -793 Descending Oakland Center
Sat 02:59:56 AM 37.5828 -122.2869 293° West 159 183 1,300 -750 Descending Oakland Center
Sat 03:00:56 AM 37.5997 -122.3261 299° West 142 163 600 -550 Descending Oakland Center
Sat 03:01:56 AM 37.6178 -122.3706 297° West 136 157 200 -400 Descending Oakland Center

Login

Don't have an account? Register now (free) for customized features, flight alerts, and more!